Pagrindinis puslapis
METAR-TAF:

METAR-TAF

Oro uostai :

Puerto Natalesas, Čilė

platuma: 51-40-15S, ilguma: 072-31-42W, Aukštis: 66 m

Dabartinis oras

Ataskaita buvo paskelbta 56 minutes, ne 16:00 UTC
Vėjas 9 kt iš Vakarų
Temperatūra 14°C
Drėgmė 47%
Slėgis 1010 hPa
Matomumas 10 km arba daugiau
Išsisklaidę debesys ne aukštis 6000 ft
Apsiniaukę ne aukštis 20000 ft

METAR: SCNT 271600Z 28009KT 9999 SCT060 OVC200 14/03 Q1010

Laikas: 13:56 (16:56 UTC)

Prognozė

Ataskaita buvo paskelbta 6 valandos ir 31 minutes, ne 10:25 UTC
Prognozė galioja nuo 27 metu 12 UTC su 28 metu 00 UTC
Vėjas 7 kt iš Vakarų/Šiaurės Vakarų
Matomumas 10 km arba daugiau
Išsisklaidę debesys ne aukštis 4500 ft
Laikinai
nuo 27 metu 15 UTC su 27 metu 19 UTC
Vėjas 17 kt iš Vakarų/Pietvakarių
Matomumas 10 km arba daugiau
nėra debesų žemiau 1500 m ir nėra kamuolinių lietaus debesų

TAF: SCNT 271025Z 2712/2800 29007KT 9999 SCT045 TN08/2712Z TX15/2719Z TEMPO 2715/2719 25017KT CAVOK

Orai ataskaitas ir orų prognozės (METAR, TAF).

turimą stotys yra geltonos ir raudonos taškus žemėlapyje.

Perkelti pele per norėdami pamatyti stoties vardą.

Tada spustelėkite, norėdami matyti oro stebėjimo ir prognozės.

Norėdami pakeisti žemėlapį: spustelėkite ant žalios mygtukų su juodo kryžiaus žemyn,; žalią mygtuką su brūkšneliu, jei norite nutolinti; arba žalių rodyklių gretimoms žemėlapius.


METAR-TAF: